createdAt,value
2022-09-22T00:01:33.377Z,6.40
2022-09-22T00:04:05.925Z,6.17
2022-09-22T00:06:36.512Z,5.60
2022-09-22T00:09:07.532Z,5.77
2022-09-22T00:11:37.575Z,6.13
2022-09-22T00:14:08.203Z,5.73
2022-09-22T00:16:39.062Z,5.80
2022-09-22T00:19:07.666Z,5.77
2022-09-22T00:21:36.161Z,7.13
2022-09-22T00:24:08.057Z,5.93
2022-09-22T00:26:37.986Z,5.53
2022-09-22T00:29:09.725Z,5.53
2022-09-22T00:31:38.984Z,5.83
2022-09-22T00:34:08.680Z,4.80
2022-09-22T00:36:36.657Z,5.13
2022-09-22T00:39:06.052Z,5.40
2022-09-22T00:41:36.258Z,6.00
2022-09-22T00:44:42.694Z,5.30
2022-09-22T00:47:20.499Z,5.30
2022-09-22T00:49:54.690Z,5.93
2022-09-22T00:52:26.753Z,6.63
2022-09-22T00:55:00.495Z,6.43
2022-09-22T00:57:32.498Z,5.97
2022-09-22T01:00:02.561Z,6.57
2022-09-22T01:02:30.645Z,5.77
2022-09-22T01:04:58.856Z,5.80
2022-09-22T01:07:31.083Z,5.67
2022-09-22T01:10:01.155Z,6.57
2022-09-22T01:12:31.984Z,6.33
2022-09-22T01:15:10.275Z,6.47
2022-09-22T01:17:48.314Z,7.03
2022-09-22T01:20:39.340Z,6.30
2022-09-22T01:23:54.363Z,6.80
2022-09-22T01:27:01.681Z,6.80
2022-09-22T01:29:58.278Z,6.63
2022-09-22T01:32:31.308Z,6.07
2022-09-22T01:35:07.785Z,6.13
2022-09-22T01:37:45.371Z,7.47
2022-09-22T01:40:18.868Z,6.53
2022-09-22T01:42:51.148Z,6.50
2022-09-22T01:45:23.748Z,6.30
2022-09-22T01:47:56.098Z,7.47
2022-09-22T01:50:28.884Z,6.70
2022-09-22T01:53:02.235Z,8.07
2022-09-22T01:55:34.835Z,7.33
2022-09-22T01:58:06.648Z,7.27
2022-09-22T02:00:36.782Z,7.30
2022-09-22T02:03:10.113Z,6.80
2022-09-22T02:05:44.027Z,6.57
2022-09-22T02:08:17.012Z,6.90
2022-09-22T02:10:48.641Z,6.27
2022-09-22T02:13:16.592Z,5.73
2022-09-22T02:16:02.986Z,6.73
2022-09-22T02:18:36.366Z,5.43
2022-09-22T02:21:05.730Z,6.27
2022-09-22T02:23:33.755Z,6.17
2022-09-22T02:26:02.947Z,6.13
2022-09-22T02:28:32.740Z,6.90
2022-09-22T02:31:19.499Z,6.77
2022-09-22T02:33:51.784Z,6.70
2022-09-22T02:36:47.875Z,6.87
2022-09-22T02:39:21.185Z,7.20
2022-09-22T02:42:09.891Z,6.80
2022-09-22T02:44:47.880Z,7.00
2022-09-22T02:47:20.339Z,6.07
2022-09-22T02:49:51.623Z,6.17
2022-09-22T02:52:21.807Z,6.40
2022-09-22T02:54:49.744Z,6.37
2022-09-22T02:57:17.766Z,6.37
2022-09-22T02:59:45.776Z,7.03
2022-09-22T03:02:13.859Z,7.50
2022-09-22T03:04:41.805Z,6.73
2022-09-22T03:07:11.150Z,7.20
2022-09-22T03:09:39.077Z,7.00
2022-09-22T03:12:07.625Z,7.00
2022-09-22T03:14:35.518Z,6.67
2022-09-22T03:17:03.445Z,6.60
2022-09-22T03:19:31.886Z,6.70
2022-09-22T03:21:59.765Z,6.10
2022-09-22T03:24:29.631Z,6.00
2022-09-22T03:26:57.472Z,6.73
2022-09-22T03:29:25.395Z,6.70
2022-09-22T03:31:53.308Z,6.93
2022-09-22T03:34:21.280Z,6.43
2022-09-22T03:36:50.008Z,7.00
2022-09-22T03:39:17.961Z,6.57
2022-09-22T03:41:47.127Z,7.40
2022-09-22T03:44:15.009Z,6.33
2022-09-22T03:46:42.998Z,5.63
2022-09-22T03:49:11.134Z,6.00
2022-09-22T03:51:38.989Z,6.33
2022-09-22T03:54:07.093Z,6.03
2022-09-22T03:56:34.947Z,6.00
2022-09-22T03:59:04.544Z,6.60
2022-09-22T04:01:33.899Z,7.40
2022-09-22T04:04:02.045Z,6.67
2022-09-22T04:06:29.932Z,6.00
2022-09-22T04:08:57.845Z,6.90
2022-09-22T04:11:25.837Z,6.40
2022-09-22T04:13:54.193Z,5.93
2022-09-22T04:16:23.520Z,6.43
2022-09-22T04:18:51.495Z,6.37
2022-09-22T04:21:19.428Z,6.40
2022-09-22T04:23:47.364Z,6.33
2022-09-22T04:26:15.451Z,6.53
2022-09-22T04:28:43.446Z,6.90
2022-09-22T04:31:11.361Z,6.23
2022-09-22T04:33:40.789Z,6.83
2022-09-22T04:36:08.969Z,6.93
2022-09-22T04:38:37.168Z,6.80
2022-09-22T04:41:05.310Z,6.30
2022-09-22T04:43:33.222Z,7.30
2022-09-22T04:46:01.544Z,6.70
2022-09-22T04:48:29.524Z,7.17
2022-09-22T04:50:58.652Z,7.10
2022-09-22T04:53:26.708Z,6.27
2022-09-22T04:55:54.565Z,5.80
2022-09-22T04:58:22.860Z,7.03
2022-09-22T05:00:51.039Z,8.20
2022-09-22T05:03:22.196Z,39.23
2022-09-22T05:05:50.414Z,21.83
2022-09-22T05:08:19.731Z,16.10
2022-09-22T05:10:47.699Z,12.33
2022-09-22T05:13:15.600Z,11.97
2022-09-22T05:15:43.485Z,9.90
2022-09-22T05:18:11.672Z,9.43
2022-09-22T05:20:39.644Z,9.50
2022-09-22T05:23:07.871Z,8.67
2022-09-22T05:25:37.052Z,9.50
2022-09-22T05:28:04.836Z,8.70
2022-09-22T05:30:32.639Z,14.83
2022-09-22T05:33:00.424Z,16.33
2022-09-22T05:35:31.771Z,13.00
2022-09-22T05:38:02.332Z,10.07
2022-09-22T05:40:31.034Z,9.30
2022-09-22T05:43:00.304Z,7.57
2022-09-22T05:45:28.127Z,7.90
2022-09-22T05:47:55.916Z,8.07
2022-09-22T05:50:24.211Z,8.10
2022-09-22T05:52:52.103Z,8.67
2022-09-22T05:55:20.029Z,9.70
2022-09-22T05:57:47.899Z,7.57
2022-09-22T06:00:17.351Z,8.23
2022-09-22T06:02:45.721Z,8.57
2022-09-22T06:05:16.011Z,8.00
2022-09-22T06:07:45.968Z,7.97
2022-09-22T06:10:13.824Z,7.70
2022-09-22T06:12:41.769Z,8.00
2022-09-22T06:15:10.346Z,8.13
2022-09-22T06:17:39.695Z,7.13
2022-09-22T06:20:08.468Z,7.47
2022-09-22T06:22:36.404Z,7.53
2022-09-22T06:25:04.781Z,8.77
2022-09-22T06:27:32.614Z,7.10
2022-09-22T06:30:00.521Z,8.10
2022-09-22T06:32:28.466Z,8.20
2022-09-22T06:35:02.440Z,8.67
2022-09-22T06:37:30.330Z,9.17
2022-09-22T06:39:58.113Z,9.53
2022-09-22T06:42:26.457Z,9.67
2022-09-22T06:44:54.641Z,9.80
2022-09-22T06:47:22.481Z,8.97
2022-09-22T06:49:50.383Z,8.77
2022-09-22T06:52:19.614Z,7.47
2022-09-22T06:54:50.560Z,8.40
2022-09-22T06:57:19.776Z,7.83
2022-09-22T06:59:48.350Z,7.63
2022-09-22T07:02:16.283Z,8.27
2022-09-22T07:04:44.245Z,8.50
2022-09-22T07:07:12.228Z,7.37
2022-09-22T07:09:41.354Z,7.87
2022-09-22T07:12:09.228Z,8.30
2022-09-22T07:14:37.029Z,7.83
2022-09-22T07:17:04.893Z,8.20
2022-09-22T07:19:36.224Z,7.90
2022-09-22T07:22:04.228Z,9.37
2022-09-22T07:24:32.059Z,8.03
2022-09-22T07:27:06.951Z,7.70
2022-09-22T07:29:34.865Z,8.13
2022-09-22T07:32:03.860Z,8.40
2022-09-22T07:34:31.919Z,7.80
2022-09-22T07:37:00.459Z,8.90
2022-09-22T07:39:28.274Z,8.50
2022-09-22T07:41:56.049Z,7.93
2022-09-22T07:44:44.641Z,8.40
2022-09-22T07:47:12.944Z,9.73
2022-09-22T07:49:40.726Z,10.57
2022-09-22T07:52:09.955Z,9.00
2022-09-22T07:54:39.721Z,8.50
2022-09-22T07:57:09.569Z,10.00
2022-09-22T07:59:39.647Z,8.67
2022-09-22T08:02:08.130Z,9.07
2022-09-22T08:04:35.956Z,7.40
2022-09-22T08:07:04.047Z,8.00
2022-09-22T08:09:33.533Z,8.80
2022-09-22T08:12:02.231Z,8.20
2022-09-22T08:14:30.364Z,7.70
2022-09-22T08:16:59.553Z,7.50
2022-09-22T08:19:27.319Z,7.40
2022-09-22T08:21:55.109Z,6.30
2022-09-22T08:24:24.059Z,6.07
2022-09-22T08:26:54.177Z,6.03
2022-09-22T08:29:22.088Z,5.83
2022-09-22T08:31:51.304Z,6.37
2022-09-22T08:34:21.735Z,6.73
2022-09-22T08:36:49.782Z,7.20
2022-09-22T08:39:18.909Z,6.17
2022-09-22T08:41:59.554Z,5.70
2022-09-22T08:44:32.830Z,5.93
2022-09-22T08:47:02.217Z,7.00
2022-09-22T08:49:57.086Z,7.37
2022-09-22T08:52:31.022Z,6.73
2022-09-22T08:55:00.234Z,6.70
2022-09-22T08:57:59.848Z,6.37
2022-09-22T09:00:33.251Z,5.70
2022-09-22T09:03:17.680Z,6.13
2022-09-22T09:05:55.824Z,6.10
2022-09-22T09:08:50.769Z,5.83
2022-09-22T09:11:32.152Z,6.10
2022-09-22T09:14:13.583Z,5.60
2022-09-22T09:16:49.755Z,5.23
2022-09-22T09:19:21.215Z,5.40
2022-09-22T09:21:53.198Z,4.63
2022-09-22T09:27:23.051Z,4.37
2022-09-22T09:30:02.035Z,4.97
2022-09-22T09:32:38.620Z,5.10
2022-09-22T09:35:13.432Z,4.50
2022-09-22T09:37:44.196Z,4.60
2022-09-22T09:40:15.818Z,4.60
2022-09-22T09:42:47.086Z,4.70
2022-09-22T09:45:17.373Z,4.13
2022-09-22T09:48:02.667Z,4.87
2022-09-22T09:50:32.116Z,4.77
2022-09-22T09:53:01.824Z,5.30
2022-09-22T09:55:29.646Z,4.13
2022-09-22T09:58:08.347Z,4.50
2022-09-22T10:00:52.347Z,4.20
2022-09-22T10:03:26.183Z,4.30
2022-09-22T10:06:00.172Z,4.53
2022-09-22T10:08:32.118Z,4.43
2022-09-22T10:11:01.885Z,4.40
2022-09-22T10:13:32.277Z,4.53
2022-09-22T10:16:19.537Z,4.80
2022-09-22T10:18:48.477Z,4.67
2022-09-22T10:21:18.078Z,4.10
2022-09-22T10:23:48.813Z,4.63
2022-09-22T10:26:20.221Z,4.53
2022-09-22T10:29:08.885Z,4.57
2022-09-22T10:31:38.272Z,4.00
2022-09-22T10:34:07.849Z,4.50
2022-09-22T10:36:44.727Z,4.30
2022-09-22T10:39:18.732Z,3.90
2022-09-22T10:41:49.751Z,4.43
2022-09-22T10:44:37.991Z,3.80
2022-09-22T10:47:27.437Z,4.10
2022-09-22T10:50:22.790Z,4.50
2022-09-22T10:52:56.803Z,4.23
2022-09-22T10:55:31.390Z,4.47
2022-09-22T10:58:27.930Z,4.00
2022-09-22T11:01:14.239Z,4.40
2022-09-22T11:04:03.356Z,3.93
2022-09-22T11:07:06.266Z,4.80
2022-09-22T11:09:59.463Z,4.30
2022-09-22T11:12:40.952Z,4.57
2022-09-22T11:15:39.852Z,4.47
2022-09-22T11:18:27.992Z,4.10
2022-09-22T11:21:07.811Z,4.50
2022-09-22T11:24:00.924Z,4.30
2022-09-22T11:26:44.673Z,4.10
2022-09-22T11:29:57.397Z,4.87
2022-09-22T11:32:40.560Z,5.70
2022-09-22T11:35:41.746Z,4.70
2022-09-22T11:38:28.548Z,5.00
2022-09-22T11:41:15.600Z,4.70
2022-09-22T11:43:59.160Z,5.07
2022-09-22T11:46:38.978Z,4.33
2022-09-22T11:49:17.993Z,4.87
2022-09-22T11:52:01.839Z,3.80
2022-09-22T11:54:47.581Z,3.50
2022-09-22T11:57:19.220Z,3.10
2022-09-22T11:59:54.458Z,3.30
2022-09-22T12:02:27.478Z,3.00
2022-09-22T12:05:00.023Z,2.90
2022-09-22T12:07:32.660Z,3.00
2022-09-22T12:10:03.939Z,2.60
2022-09-22T12:12:33.268Z,2.90
2022-09-22T12:15:08.636Z,2.70
2022-09-22T12:17:44.481Z,2.53
2022-09-22T12:20:30.250Z,3.10
2022-09-22T12:23:36.369Z,2.70
2022-09-22T12:26:08.073Z,3.37
2022-09-22T12:28:40.301Z,3.03
2022-09-22T12:31:12.975Z,2.87
2022-09-22T12:33:51.099Z,3.00
2022-09-22T12:36:28.820Z,3.87
2022-09-22T12:39:08.839Z,4.27
2022-09-22T12:41:48.306Z,3.40
2022-09-22T12:44:23.847Z,3.90
2022-09-22T12:46:53.878Z,4.20
2022-09-22T12:49:24.205Z,4.47
2022-09-22T12:51:53.005Z,4.30
2022-09-22T12:54:38.677Z,3.97
2022-09-22T12:57:28.641Z,4.30
2022-09-22T13:00:12.313Z,4.47
2022-09-22T13:02:45.996Z,4.97
2022-09-22T13:05:34.961Z,5.40
2022-09-22T13:08:03.316Z,4.57
2022-09-22T13:10:52.332Z,4.70
2022-09-22T13:13:36.901Z,5.10
2022-09-22T13:16:21.313Z,4.70
2022-09-22T13:18:59.877Z,4.63
2022-09-22T13:21:30.474Z,5.13
2022-09-22T13:24:00.080Z,5.20
2022-09-22T13:26:30.244Z,4.90
2022-09-22T13:29:07.883Z,4.43
2022-09-22T13:31:43.978Z,8.60
2022-09-22T13:34:25.331Z,5.03
2022-09-22T13:36:57.678Z,4.50
2022-09-22T13:39:28.228Z,5.20
2022-09-22T13:42:00.216Z,4.73
2022-09-22T13:44:31.853Z,5.67
2022-09-22T13:47:03.075Z,5.10
2022-09-22T13:49:35.644Z,5.30
2022-09-22T13:52:08.493Z,5.00
2022-09-22T13:54:38.537Z,4.83
2022-09-22T13:57:08.938Z,4.37
2022-09-22T13:59:42.187Z,5.43
2022-09-22T14:02:12.419Z,5.10
2022-09-22T14:04:50.734Z,5.03
2022-09-22T14:07:22.186Z,5.33
2022-09-22T14:09:50.890Z,5.50
2022-09-22T14:12:19.016Z,5.20
2022-09-22T14:14:46.953Z,5.50
2022-09-22T14:17:19.249Z,5.60
2022-09-22T14:19:55.795Z,5.07
2022-09-22T14:22:27.082Z,4.67
2022-09-22T14:24:57.162Z,4.70
2022-09-22T14:27:31.453Z,4.73
2022-09-22T14:30:00.104Z,5.10
2022-09-22T14:32:34.999Z,5.40
2022-09-22T14:35:06.808Z,5.10
2022-09-22T14:37:39.254Z,4.80
2022-09-22T14:40:16.008Z,4.80
2022-09-22T14:42:55.713Z,4.60
2022-09-22T14:45:24.550Z,4.93
2022-09-22T14:48:10.951Z,4.73
2022-09-22T14:50:42.401Z,4.47
2022-09-22T14:53:22.049Z,5.00
2022-09-22T14:55:52.843Z,5.30
2022-09-22T14:58:24.839Z,5.03
2022-09-22T15:01:12.999Z,4.80
2022-09-22T15:03:42.796Z,5.27
2022-09-22T15:06:13.707Z,7.07
2022-09-22T15:08:44.746Z,4.97
2022-09-22T15:11:13.005Z,5.20
2022-09-22T15:13:41.941Z,4.30
2022-09-22T15:16:43.356Z,4.73
2022-09-22T15:19:13.115Z,4.20
2022-09-22T15:21:46.911Z,4.27
2022-09-22T15:24:21.148Z,4.83
2022-09-22T15:26:49.025Z,4.50
2022-09-22T15:29:17.372Z,5.20
2022-09-22T15:31:45.299Z,4.37
2022-09-22T15:34:16.726Z,3.80
2022-09-22T15:36:48.780Z,4.83
2022-09-22T15:39:21.746Z,4.20
2022-09-22T15:41:50.378Z,4.67
2022-09-22T15:44:18.369Z,4.83
2022-09-22T15:46:50.276Z,5.80
2022-09-22T15:49:22.371Z,4.90
2022-09-22T15:51:50.639Z,5.20
2022-09-22T15:54:21.947Z,4.83
2022-09-22T15:56:52.212Z,5.43
2022-09-22T15:59:22.265Z,4.90
2022-09-22T16:01:51.743Z,5.70
2022-09-22T16:04:19.639Z,5.00
2022-09-22T16:06:54.252Z,4.70
2022-09-22T16:09:23.651Z,5.50
2022-09-22T16:11:51.527Z,4.87
2022-09-22T16:14:19.810Z,5.87
2022-09-22T16:16:47.597Z,5.20
2022-09-22T16:19:16.092Z,5.10
2022-09-22T16:21:50.472Z,6.50
2022-09-22T16:24:18.920Z,5.37
2022-09-22T16:26:48.098Z,6.23
2022-09-22T16:29:16.021Z,6.67
2022-09-22T16:31:44.049Z,6.37
2022-09-22T16:34:12.427Z,5.40
2022-09-22T16:36:41.702Z,5.40
2022-09-22T16:39:09.718Z,5.60
2022-09-22T16:41:38.148Z,4.70
2022-09-22T16:44:07.328Z,5.23
2022-09-22T16:46:37.732Z,5.30
2022-09-22T16:49:07.358Z,5.40
2022-09-22T16:51:38.159Z,4.60
2022-09-22T16:54:07.437Z,4.90
2022-09-22T16:56:38.170Z,5.53
2022-09-22T16:59:08.064Z,5.17
2022-09-22T17:01:37.826Z,4.70
2022-09-22T17:04:07.061Z,4.87
2022-09-22T17:06:37.634Z,5.40
2022-09-22T17:09:06.675Z,5.20
2022-09-22T17:11:36.615Z,5.00
2022-09-22T17:14:12.230Z,5.20
2022-09-22T17:16:42.402Z,8.63
2022-09-22T17:19:11.982Z,6.40
2022-09-22T17:21:41.021Z,5.83
2022-09-22T17:24:09.855Z,5.37
2022-09-22T17:26:41.175Z,6.30
2022-09-22T17:29:10.891Z,5.40
2022-09-22T17:31:39.925Z,4.70
2022-09-22T17:34:07.875Z,5.10
2022-09-22T17:36:35.782Z,4.20
2022-09-22T17:39:03.769Z,4.50
2022-09-22T17:41:33.557Z,4.27
2022-09-22T17:44:03.167Z,4.40
2022-09-22T17:46:34.378Z,4.57
2022-09-22T17:49:20.385Z,5.10
2022-09-22T17:52:06.696Z,7.27
2022-09-22T17:54:53.258Z,9.30
2022-09-22T17:57:23.017Z,4.40
2022-09-22T17:59:51.849Z,4.60
2022-09-22T18:02:21.989Z,4.60
2022-09-22T18:04:50.127Z,5.37
2022-09-22T18:07:19.948Z,5.47
2022-09-22T18:09:49.583Z,5.53
2022-09-22T18:12:20.327Z,14.73
2022-09-22T18:14:50.153Z,7.97
2022-09-22T18:17:20.065Z,6.87
2022-09-22T18:19:49.385Z,7.10
2022-09-22T18:22:20.900Z,6.43
2022-09-22T18:24:50.381Z,7.50
2022-09-22T18:27:20.654Z,7.00
2022-09-22T18:29:49.955Z,7.03
2022-09-22T18:32:19.669Z,6.60
2022-09-22T18:34:51.158Z,6.33
2022-09-22T18:37:20.388Z,5.57
2022-09-22T18:39:50.223Z,6.10
2022-09-22T18:42:19.063Z,6.60
2022-09-22T18:44:47.651Z,5.87
2022-09-22T18:47:18.465Z,6.73
2022-09-22T18:49:48.161Z,5.60
2022-09-22T18:52:21.549Z,7.90
2022-09-22T18:54:52.983Z,6.40
2022-09-22T18:57:21.722Z,6.40
2022-09-22T18:59:50.920Z,6.60
2022-09-22T19:02:22.446Z,6.20
2022-09-22T19:04:51.234Z,6.37
2022-09-22T19:07:42.476Z,7.30
2022-09-22T19:10:13.438Z,7.10
2022-09-22T19:12:42.406Z,6.90
2022-09-22T19:15:13.811Z,6.40
2022-09-22T19:17:44.255Z,6.90
2022-09-22T19:20:14.514Z,6.40
2022-09-22T19:22:43.968Z,6.77
2022-09-22T19:25:12.408Z,6.30
2022-09-22T19:27:40.760Z,6.70
2022-09-22T19:30:09.708Z,6.53
2022-09-22T19:32:38.156Z,6.30
2022-09-22T19:35:06.964Z,6.80
2022-09-22T19:37:34.837Z,6.50
2022-09-22T19:40:05.283Z,5.60
2022-09-22T19:42:37.984Z,7.03
2022-09-22T19:45:08.301Z,6.80
2022-09-22T19:47:36.072Z,6.20
2022-09-22T19:50:05.172Z,6.07
2022-09-22T19:52:34.871Z,7.27
2022-09-22T19:55:04.363Z,7.20
2022-09-22T19:57:32.885Z,7.00
2022-09-22T20:00:00.745Z,7.20
2022-09-22T20:02:28.555Z,7.30
2022-09-22T20:04:57.067Z,7.67
2022-09-22T20:07:27.692Z,7.70
2022-09-22T20:09:56.448Z,7.50
2022-09-22T20:12:25.588Z,7.70
2022-09-22T20:14:54.508Z,8.63
2022-09-22T20:17:23.110Z,7.47
2022-09-22T20:19:50.937Z,7.43
2022-09-22T20:22:22.855Z,8.10
2022-09-22T20:24:54.006Z,8.03
2022-09-22T20:27:25.909Z,7.97
2022-09-22T20:29:57.325Z,8.93
2022-09-22T20:32:26.377Z,8.10
2022-09-22T20:34:55.335Z,8.60
2022-09-22T20:37:23.556Z,8.60
2022-09-22T20:39:51.445Z,10.80
2022-09-22T20:42:19.312Z,8.13
2022-09-22T20:44:49.002Z,8.00
2022-09-22T20:47:18.125Z,7.40
2022-09-22T20:49:51.344Z,8.70
2022-09-22T20:52:21.018Z,7.70
2022-09-22T20:54:49.739Z,7.80
2022-09-22T20:57:18.248Z,11.20
2022-09-22T20:59:47.111Z,9.97
2022-09-22T21:02:18.538Z,9.20
2022-09-22T21:04:46.361Z,8.47
2022-09-22T21:07:14.166Z,8.10
2022-09-22T21:09:59.543Z,8.50
2022-09-22T21:12:31.347Z,8.30
2022-09-22T21:14:59.751Z,9.00
2022-09-22T21:17:29.617Z,8.13
2022-09-22T21:19:58.093Z,9.93
2022-09-22T21:22:27.982Z,8.53
2022-09-22T21:24:56.156Z,38.47
2022-09-22T21:27:24.669Z,28.70
2022-09-22T21:29:53.121Z,11.87
2022-09-22T21:32:21.036Z,8.90
2022-09-22T21:34:50.290Z,8.00
2022-09-22T21:37:18.143Z,8.70
2022-09-22T21:39:46.352Z,7.80
2022-09-22T21:42:14.148Z,7.83
2022-09-22T21:44:42.050Z,8.63
2022-09-22T21:47:11.412Z,9.40
2022-09-22T21:49:39.422Z,8.13
2022-09-22T21:52:08.607Z,8.77
2022-09-22T21:54:36.418Z,6.30
2022-09-22T21:57:04.229Z,7.53
2022-09-22T21:59:32.073Z,7.80
2022-09-22T22:02:00.534Z,7.63
2022-09-22T22:04:28.414Z,8.07
2022-09-22T22:06:56.496Z,8.10
2022-09-22T22:09:25.936Z,7.80
2022-09-22T22:11:56.372Z,7.43
2022-09-22T22:14:27.195Z,8.27
2022-09-22T22:16:56.201Z,8.33
2022-09-22T22:19:26.848Z,7.93
2022-09-22T22:21:55.730Z,8.50
2022-09-22T22:24:33.722Z,8.17
2022-09-22T22:27:05.667Z,8.43
2022-09-22T22:29:35.260Z,8.13
2022-09-22T22:32:04.083Z,7.93
2022-09-22T22:34:31.969Z,8.73
2022-09-22T22:37:00.445Z,8.47
2022-09-22T22:39:30.085Z,8.13
2022-09-22T22:41:58.101Z,7.83
2022-09-22T22:44:26.077Z,7.93
2022-09-22T22:46:54.063Z,9.27
2022-09-22T22:49:22.118Z,8.77
2022-09-22T22:51:52.056Z,8.33
2022-09-22T22:54:20.059Z,8.90
2022-09-22T22:56:51.509Z,8.77
2022-09-22T22:59:19.920Z,8.70
2022-09-22T23:01:47.859Z,7.73
2022-09-22T23:04:16.628Z,8.53
2022-09-22T23:06:44.982Z,9.17
2022-09-22T23:09:15.114Z,7.93
2022-09-22T23:11:45.576Z,8.77
2022-09-22T23:14:16.207Z,9.63
2022-09-22T23:16:46.279Z,9.13
2022-09-22T23:19:16.063Z,10.47
2022-09-22T23:21:44.963Z,11.10
2022-09-22T23:24:15.593Z,10.20
2022-09-22T23:26:43.811Z,9.30
2022-09-22T23:29:11.695Z,10.87
2022-09-22T23:31:41.035Z,9.40
2022-09-22T23:34:09.106Z,10.00
2022-09-22T23:36:37.188Z,9.03
2022-09-22T23:39:05.348Z,8.70
2022-09-22T23:41:34.861Z,9.37
2022-09-22T23:44:03.427Z,8.77
2022-09-22T23:46:31.789Z,9.40
2022-09-22T23:49:01.241Z,9.03
2022-09-22T23:51:29.143Z,8.90
2022-09-22T23:53:57.579Z,9.23
2022-09-22T23:56:25.930Z,9.23
2022-09-22T23:58:53.896Z,9.17
